createdAt,value
2022-10-22T00:01:11.801Z,43.86
2022-10-22T00:03:38.733Z,43.73
2022-10-22T00:06:05.441Z,43.66
2022-10-22T00:08:32.281Z,43.56
2022-10-22T00:10:58.983Z,43.78
2022-10-22T00:13:25.339Z,43.73
2022-10-22T00:15:52.287Z,43.30
2022-10-22T00:18:18.677Z,43.37
2022-10-22T00:20:45.117Z,44.04
2022-10-22T00:23:11.591Z,43.95
2022-10-22T00:25:38.109Z,43.75
2022-10-22T00:28:04.652Z,43.75
2022-10-22T00:30:31.200Z,43.54
2022-10-22T00:32:57.686Z,43.91
2022-10-22T00:35:24.324Z,43.90
2022-10-22T00:37:50.915Z,43.85
2022-10-22T00:40:17.398Z,43.80
2022-10-22T00:42:44.088Z,44.40
2022-10-22T00:45:10.629Z,44.29
2022-10-22T00:47:37.346Z,44.18
2022-10-22T00:52:30.707Z,44.40
2022-10-22T00:54:57.228Z,44.45
2022-10-22T00:57:23.668Z,44.51
2022-10-22T00:59:50.318Z,44.81
2022-10-22T01:04:52.108Z,44.93
2022-10-22T01:07:18.444Z,44.96
2022-10-22T01:09:44.848Z,44.96
2022-10-22T01:12:11.490Z,45.04
2022-10-22T01:14:37.832Z,45.56
2022-10-22T01:17:04.179Z,45.15
2022-10-22T01:19:30.807Z,45.41
2022-10-22T01:21:57.221Z,45.17
2022-10-22T01:24:23.586Z,45.60
2022-10-22T01:26:50.242Z,45.61
2022-10-22T01:29:16.606Z,45.20
2022-10-22T01:31:42.989Z,45.54
2022-10-22T01:34:09.397Z,45.73
2022-10-22T01:36:35.778Z,45.50
2022-10-22T01:39:02.134Z,45.49
2022-10-22T01:41:28.521Z,45.66
2022-10-22T01:43:54.909Z,45.82
2022-10-22T01:46:21.306Z,45.87
2022-10-22T01:48:47.731Z,45.74
2022-10-22T01:51:14.132Z,45.60
2022-10-22T01:53:40.488Z,45.76
2022-10-22T01:56:07.411Z,45.72
2022-10-22T01:58:33.841Z,46.10
2022-10-22T02:01:00.347Z,46.79
2022-10-22T02:03:27.117Z,46.85
2022-10-22T02:05:53.457Z,46.72
2022-10-22T02:08:19.791Z,46.47
2022-10-22T02:10:46.640Z,46.46
2022-10-22T02:13:12.972Z,46.54
2022-10-22T02:15:42.047Z,46.33
2022-10-22T02:18:08.683Z,46.23
2022-10-22T02:20:35.055Z,46.15
2022-10-22T02:23:01.431Z,46.58
2022-10-22T02:25:27.766Z,46.62
2022-10-22T02:27:54.167Z,46.41
2022-10-22T02:30:20.467Z,46.93
2022-10-22T02:32:46.854Z,46.62
2022-10-22T02:35:13.207Z,46.73
2022-10-22T02:37:39.554Z,46.46
2022-10-22T02:40:06.474Z,46.50
2022-10-22T02:42:33.175Z,46.37
2022-10-22T02:44:59.504Z,46.50
2022-10-22T02:47:26.164Z,46.76
2022-10-22T02:49:52.496Z,46.91
2022-10-22T02:52:18.847Z,46.46
2022-10-22T02:54:45.220Z,46.70
2022-10-22T02:57:11.613Z,46.57
2022-10-22T02:59:37.994Z,46.86
2022-10-22T03:02:04.416Z,46.72
2022-10-22T03:04:30.772Z,46.85
2022-10-22T03:06:57.190Z,46.61
2022-10-22T03:09:24.858Z,46.61
2022-10-22T03:11:51.452Z,46.71
2022-10-22T03:14:17.801Z,47.17
2022-10-22T03:16:44.477Z,46.56
2022-10-22T03:19:10.852Z,46.90
2022-10-22T03:21:37.244Z,47.21
2022-10-22T03:24:04.248Z,47.13
2022-10-22T03:26:30.618Z,47.10
2022-10-22T03:28:57.026Z,46.97
2022-10-22T03:31:23.429Z,46.68
2022-10-22T03:33:49.825Z,47.06
2022-10-22T03:36:16.178Z,46.93
2022-10-22T03:38:42.721Z,46.94
2022-10-22T03:41:09.065Z,46.80
2022-10-22T03:43:35.413Z,46.82
2022-10-22T03:46:01.836Z,47.05
2022-10-22T03:48:28.173Z,48.28
2022-10-22T03:50:54.543Z,48.55
2022-10-22T03:53:20.972Z,48.26
2022-10-22T03:55:47.287Z,47.79
2022-10-22T03:58:13.664Z,47.52
2022-10-22T04:00:40.131Z,48.24
2022-10-22T04:03:06.513Z,47.70
2022-10-22T04:05:32.926Z,47.62
2022-10-22T04:07:59.427Z,47.49
2022-10-22T04:10:25.794Z,47.47
2022-10-22T04:12:52.299Z,47.38
2022-10-22T04:15:19.241Z,47.50
2022-10-22T04:17:45.626Z,47.77
2022-10-22T04:20:12.003Z,48.11
2022-10-22T04:22:38.882Z,47.81
2022-10-22T04:25:05.281Z,47.93
2022-10-22T04:27:31.651Z,47.48
2022-10-22T04:29:58.363Z,47.57
2022-10-22T04:32:24.764Z,48.01
2022-10-22T04:34:51.130Z,47.92
2022-10-22T04:37:17.796Z,47.66
2022-10-22T04:39:44.259Z,47.01
2022-10-22T04:42:10.757Z,47.40
2022-10-22T04:44:37.330Z,48.02
2022-10-22T04:47:03.702Z,47.89
2022-10-22T04:49:30.091Z,47.35
2022-10-22T04:51:56.644Z,47.83
2022-10-22T04:54:23.046Z,47.36
2022-10-22T04:56:49.460Z,47.74
2022-10-22T04:59:15.952Z,47.31
2022-10-22T05:01:43.150Z,47.60
2022-10-22T05:04:09.781Z,47.42
2022-10-22T05:06:37.459Z,47.49
2022-10-22T05:09:03.916Z,47.51
2022-10-22T05:11:30.290Z,47.46
2022-10-22T05:13:57.133Z,47.73
2022-10-22T05:16:23.472Z,47.45
2022-10-22T05:18:49.871Z,47.31
2022-10-22T05:21:16.748Z,46.98
2022-10-22T05:23:43.077Z,47.47
2022-10-22T05:26:09.429Z,47.06
2022-10-22T05:28:36.340Z,47.36
2022-10-22T05:31:02.728Z,47.31
2022-10-22T05:33:29.075Z,46.97
2022-10-22T05:35:56.426Z,46.99
2022-10-22T05:38:22.849Z,47.12
2022-10-22T05:40:49.214Z,46.84
2022-10-22T05:43:15.658Z,46.97
2022-10-22T05:45:42.053Z,47.13
2022-10-22T05:48:08.414Z,47.64
2022-10-22T05:50:35.123Z,47.72
2022-10-22T05:53:01.732Z,47.31
2022-10-22T05:55:28.077Z,47.15
2022-10-22T05:57:54.761Z,47.32
2022-10-22T06:00:21.185Z,47.25
2022-10-22T06:02:47.643Z,47.13
2022-10-22T06:05:14.105Z,47.02
2022-10-22T06:07:40.862Z,47.64
2022-10-22T06:10:07.210Z,47.41
2022-10-22T06:12:33.690Z,46.71
2022-10-22T06:15:00.051Z,47.00
2022-10-22T06:17:26.501Z,47.19
2022-10-22T06:19:53.271Z,47.40
2022-10-22T06:22:20.033Z,47.68
2022-10-22T06:24:46.463Z,47.61
2022-10-22T06:27:13.002Z,47.10
2022-10-22T06:29:39.368Z,46.43
2022-10-22T06:32:05.768Z,47.18
2022-10-22T06:34:32.427Z,47.07
2022-10-22T06:36:58.869Z,46.50
2022-10-22T06:39:25.250Z,46.33
2022-10-22T06:41:51.899Z,47.64
2022-10-22T06:44:18.534Z,46.90
2022-10-22T06:46:44.976Z,46.60
2022-10-22T06:49:12.406Z,43.92
2022-10-22T06:51:38.785Z,45.47
2022-10-22T06:54:05.138Z,46.66
2022-10-22T06:56:31.535Z,45.93
2022-10-22T06:58:57.931Z,44.50
2022-10-22T07:01:24.636Z,44.75
2022-10-22T07:03:51.090Z,45.55
2022-10-22T07:06:17.514Z,45.00
2022-10-22T07:08:44.111Z,44.96
2022-10-22T07:11:10.648Z,45.29
2022-10-22T07:13:37.019Z,45.22
2022-10-22T07:16:03.966Z,45.28
2022-10-22T07:18:30.586Z,44.81
2022-10-22T07:20:59.707Z,43.93
2022-10-22T07:23:26.376Z,45.01
2022-10-22T07:25:53.094Z,44.86
2022-10-22T07:28:19.565Z,44.07
2022-10-22T07:30:45.926Z,43.55
2022-10-22T07:33:12.539Z,44.13
2022-10-22T07:35:39.004Z,45.48
2022-10-22T07:38:06.448Z,45.16
2022-10-22T07:40:32.869Z,44.07
2022-10-22T07:42:59.264Z,44.24
2022-10-22T07:45:25.794Z,44.81
2022-10-22T07:47:52.268Z,45.41
2022-10-22T07:50:19.028Z,45.78
2022-10-22T07:52:45.444Z,46.74
2022-10-22T07:55:12.274Z,47.15
2022-10-22T07:57:38.833Z,46.81
2022-10-22T08:00:05.264Z,47.02
2022-10-22T08:02:31.808Z,46.51
2022-10-22T08:04:58.179Z,46.62
2022-10-22T08:07:24.517Z,47.51
2022-10-22T08:09:51.236Z,47.62
2022-10-22T08:12:17.648Z,48.26
2022-10-22T08:14:44.242Z,48.74
2022-10-22T08:17:10.818Z,48.58
2022-10-22T08:19:37.207Z,47.83
2022-10-22T08:22:05.038Z,47.91
2022-10-22T08:24:31.756Z,47.71
2022-10-22T08:26:58.135Z,49.47
2022-10-22T08:29:25.744Z,50.29
2022-10-22T08:31:52.604Z,50.45
2022-10-22T08:34:18.953Z,50.07
2022-10-22T08:36:45.364Z,49.59
2022-10-22T08:39:12.123Z,49.41
2022-10-22T08:41:38.637Z,50.03
2022-10-22T08:44:05.038Z,51.26
2022-10-22T08:46:31.458Z,52.64
2022-10-22T08:48:57.985Z,52.58
2022-10-22T08:51:24.510Z,52.98
2022-10-22T08:53:51.278Z,52.10
2022-10-22T08:56:17.736Z,51.39
2022-10-22T08:58:44.102Z,50.85
2022-10-22T09:01:10.720Z,51.09
2022-10-22T09:03:37.090Z,51.10
2022-10-22T09:06:03.498Z,52.82
2022-10-22T09:08:30.012Z,51.36
2022-10-22T09:10:56.549Z,50.50
2022-10-22T09:13:22.998Z,51.33
2022-10-22T09:15:49.544Z,53.83
2022-10-22T09:18:18.244Z,54.02
2022-10-22T09:20:44.591Z,55.32
2022-10-22T09:23:11.035Z,54.19
2022-10-22T09:25:37.570Z,53.53
2022-10-22T09:28:03.945Z,56.75
2022-10-22T09:30:30.410Z,55.31
2022-10-22T09:32:56.796Z,56.97
2022-10-22T09:35:23.152Z,55.55
2022-10-22T09:37:49.567Z,56.03
2022-10-22T09:40:15.917Z,56.71
2022-10-22T09:42:42.620Z,58.01
2022-10-22T09:45:09.237Z,58.99
2022-10-22T09:48:00.694Z,58.56
2022-10-22T09:50:21.955Z,58.04
2022-10-22T09:52:48.357Z,57.58
2022-10-22T09:55:14.716Z,57.42
2022-10-22T09:57:44.480Z,57.21
2022-10-22T10:00:11.020Z,57.07
2022-10-22T10:02:38.594Z,57.38
2022-10-22T10:05:05.886Z,56.43
2022-10-22T10:07:32.255Z,55.83
2022-10-22T10:09:59.159Z,58.28
2022-10-22T10:12:25.572Z,59.61
2022-10-22T10:14:51.944Z,58.34
2022-10-22T10:17:19.852Z,57.42
2022-10-22T10:19:46.451Z,56.43
2022-10-22T10:22:12.784Z,56.13
2022-10-22T10:24:39.290Z,55.89
2022-10-22T10:27:05.986Z,55.65
2022-10-22T10:29:32.377Z,55.63
2022-10-22T10:31:58.750Z,55.51
2022-10-22T10:34:27.794Z,56.12
2022-10-22T10:36:54.201Z,56.54
2022-10-22T10:39:23.610Z,56.25
2022-10-22T10:41:50.342Z,56.64
2022-10-22T10:44:16.789Z,56.00
2022-10-22T10:46:43.140Z,56.02
2022-10-22T10:49:10.035Z,55.74
2022-10-22T10:51:36.516Z,55.78
2022-10-22T10:54:02.921Z,55.45
2022-10-22T10:56:29.257Z,55.51
2022-10-22T10:58:55.608Z,56.24
2022-10-22T11:01:22.120Z,56.01
2022-10-22T11:03:48.829Z,56.47
2022-10-22T11:06:15.214Z,57.36
2022-10-22T11:08:41.721Z,59.54
2022-10-22T11:11:08.481Z,59.97
2022-10-22T11:13:36.182Z,60.09
2022-10-22T11:16:02.558Z,60.88
2022-10-22T11:18:28.990Z,61.31
2022-10-22T11:20:55.547Z,60.87
2022-10-22T11:23:22.449Z,60.59
2022-10-22T11:25:49.043Z,60.66
2022-10-22T11:30:46.689Z,60.27
2022-10-22T11:33:13.374Z,59.98
2022-10-22T11:35:39.817Z,59.02
2022-10-22T11:38:06.348Z,58.55
2022-10-22T11:40:33.033Z,58.62
2022-10-22T11:42:59.599Z,58.25
2022-10-22T11:45:25.956Z,58.11
2022-10-22T11:47:52.561Z,58.29
2022-10-22T11:50:19.047Z,58.07
2022-10-22T11:52:45.458Z,60.70
2022-10-22T11:55:12.428Z,60.28
2022-10-22T11:57:39.338Z,59.57
2022-10-22T12:00:06.013Z,59.74
2022-10-22T12:02:32.990Z,59.08
2022-10-22T12:04:59.657Z,58.70
2022-10-22T12:07:26.025Z,58.71
2022-10-22T12:12:24.347Z,58.76
2022-10-22T12:14:51.716Z,58.26
2022-10-22T12:17:18.118Z,57.81
2022-10-22T12:19:45.425Z,57.87
2022-10-22T12:22:11.788Z,58.62
2022-10-22T12:24:38.544Z,58.57
2022-10-22T12:27:04.902Z,57.44
2022-10-22T12:29:31.262Z,57.29
2022-10-22T12:31:57.904Z,57.10
2022-10-22T12:34:24.323Z,57.01
2022-10-22T12:36:50.659Z,56.63
2022-10-22T12:39:17.377Z,56.84
2022-10-22T12:41:43.746Z,57.30
2022-10-22T12:44:10.083Z,57.40
2022-10-22T12:46:36.472Z,58.00
2022-10-22T12:49:03.033Z,58.00
2022-10-22T12:51:29.500Z,57.04
2022-10-22T12:53:55.983Z,58.10
2022-10-22T12:56:22.519Z,56.58
2022-10-22T12:58:48.924Z,56.66
2022-10-22T13:01:15.461Z,57.19
2022-10-22T13:03:41.851Z,56.85
2022-10-22T13:06:08.236Z,56.33
2022-10-22T13:08:34.739Z,57.60
2022-10-22T13:11:01.131Z,56.95
2022-10-22T13:13:27.541Z,57.88
2022-10-22T13:15:54.001Z,57.67
2022-10-22T13:18:20.401Z,56.97
2022-10-22T13:20:47.009Z,57.48
2022-10-22T13:23:13.611Z,57.92
2022-10-22T13:25:39.948Z,57.14
2022-10-22T13:28:06.367Z,56.78
2022-10-22T13:30:33.177Z,56.78
2022-10-22T13:32:59.568Z,56.44
2022-10-22T13:35:25.929Z,56.55
2022-10-22T13:37:52.390Z,56.12
2022-10-22T13:40:18.794Z,56.04
2022-10-22T13:42:45.194Z,55.29
2022-10-22T13:45:12.125Z,54.99
2022-10-22T13:47:38.494Z,56.28
2022-10-22T13:50:04.979Z,56.32
2022-10-22T13:52:31.446Z,56.16
2022-10-22T13:54:57.860Z,56.82
2022-10-22T13:57:24.437Z,56.06
2022-10-22T13:59:51.037Z,55.43
2022-10-22T14:02:19.732Z,55.15
2022-10-22T14:04:47.395Z,55.27
2022-10-22T14:07:15.090Z,56.06
2022-10-22T14:09:41.424Z,55.85
2022-10-22T14:12:07.819Z,55.81
2022-10-22T14:14:34.590Z,55.20
2022-10-22T14:17:00.991Z,55.84
2022-10-22T14:19:27.477Z,55.76
2022-10-22T14:21:54.039Z,55.67
2022-10-22T14:24:20.508Z,55.70
2022-10-22T14:26:47.100Z,55.48
2022-10-22T14:29:13.771Z,55.25
2022-10-22T14:34:11.594Z,54.77
2022-10-22T14:36:38.004Z,54.30
2022-10-22T14:39:04.355Z,54.04
2022-10-22T14:41:30.721Z,53.36
2022-10-22T14:43:57.777Z,53.55
2022-10-22T14:46:24.309Z,53.34
2022-10-22T14:48:50.633Z,54.01
2022-10-22T14:51:17.202Z,54.14
2022-10-22T14:53:43.671Z,54.39
2022-10-22T14:56:10.230Z,54.07
2022-10-22T14:58:36.651Z,54.17
2022-10-22T15:01:03.102Z,54.37
2022-10-22T15:03:29.465Z,54.13
2022-10-22T15:05:56.334Z,54.52
2022-10-22T15:08:22.795Z,54.86
2022-10-22T15:10:49.160Z,54.40
2022-10-22T15:13:15.823Z,54.48
2022-10-22T15:15:42.177Z,54.80
2022-10-22T15:18:08.777Z,54.56
2022-10-22T15:20:35.970Z,54.28
2022-10-22T15:23:02.368Z,54.64
2022-10-22T15:25:29.043Z,54.95
2022-10-22T15:27:59.651Z,55.09
2022-10-22T15:30:34.193Z,54.35
2022-10-22T15:33:01.069Z,54.73
2022-10-22T15:35:27.466Z,55.74
2022-10-22T15:37:53.907Z,56.09
2022-10-22T15:40:20.330Z,56.35
2022-10-22T15:42:49.507Z,55.38
2022-10-22T15:45:16.105Z,56.07
2022-10-22T15:47:45.057Z,56.23
2022-10-22T15:50:13.703Z,56.78
2022-10-22T15:52:40.182Z,58.20
2022-10-22T15:55:07.128Z,56.77
2022-10-22T15:57:33.680Z,56.96
2022-10-22T16:00:01.062Z,56.62
2022-10-22T16:02:27.713Z,55.85
2022-10-22T16:04:54.176Z,55.17
2022-10-22T16:07:23.912Z,56.05
2022-10-22T16:09:51.600Z,55.98
2022-10-22T16:12:18.019Z,56.17
2022-10-22T16:14:44.596Z,56.39
2022-10-22T16:17:11.178Z,55.98
2022-10-22T16:19:37.616Z,56.36
2022-10-22T16:22:04.231Z,56.27
2022-10-22T16:24:31.825Z,56.51
2022-10-22T16:26:58.246Z,56.36
2022-10-22T16:29:24.825Z,55.49
2022-10-22T16:31:51.623Z,56.40
2022-10-22T16:34:18.033Z,56.00
2022-10-22T16:36:45.271Z,55.38
2022-10-22T16:39:11.846Z,56.87
2022-10-22T16:41:38.446Z,56.20
2022-10-22T16:44:04.855Z,55.81
2022-10-22T16:46:31.346Z,56.67
2022-10-22T16:48:58.267Z,56.23
2022-10-22T16:51:25.100Z,57.29
2022-10-22T16:53:51.676Z,56.97
2022-10-22T16:56:18.296Z,56.60
2022-10-22T16:58:44.770Z,56.27
2022-10-22T17:01:11.714Z,57.30
2022-10-22T17:03:38.623Z,56.79
2022-10-22T17:06:05.436Z,57.75
2022-10-22T17:08:32.367Z,57.49
2022-10-22T17:10:58.963Z,57.35
2022-10-22T17:13:26.653Z,56.50
2022-10-22T17:15:53.535Z,56.52
2022-10-22T17:18:19.966Z,56.16
2022-10-22T17:20:46.819Z,55.14
2022-10-22T17:23:13.755Z,56.88
2022-10-22T17:25:40.552Z,57.43
2022-10-22T17:28:07.447Z,57.28
2022-10-22T17:30:34.465Z,56.47
2022-10-22T17:33:01.167Z,55.92
2022-10-22T17:38:00.268Z,55.96
2022-10-22T17:40:27.144Z,56.08
2022-10-22T17:42:53.869Z,57.46
2022-10-22T17:45:21.244Z,56.39
2022-10-22T17:47:48.080Z,57.18
2022-10-22T17:50:14.677Z,58.05
2022-10-22T17:52:41.652Z,57.26
2022-10-22T17:55:09.396Z,56.38
2022-10-22T17:57:35.916Z,56.61
2022-10-22T18:00:02.713Z,58.23
2022-10-22T18:02:29.109Z,58.23
2022-10-22T18:04:55.818Z,57.08
2022-10-22T18:07:22.402Z,55.78
2022-10-22T18:09:49.224Z,56.96
2022-10-22T18:12:17.007Z,57.94
2022-10-22T18:14:44.662Z,59.24
2022-10-22T18:17:12.265Z,58.35
2022-10-22T18:19:39.004Z,57.92
2022-10-22T18:22:05.883Z,56.83
2022-10-22T18:24:33.381Z,57.36
2022-10-22T18:27:01.032Z,56.91
2022-10-22T18:29:28.092Z,57.40
2022-10-22T18:31:54.834Z,56.66
2022-10-22T18:34:23.792Z,55.99
2022-10-22T18:36:57.268Z,56.79
2022-10-22T18:39:24.057Z,57.31
2022-10-22T18:41:50.957Z,57.01
2022-10-22T18:44:20.770Z,56.03
2022-10-22T18:46:47.867Z,55.77
2022-10-22T18:49:14.807Z,55.36
2022-10-22T18:51:45.145Z,55.99
2022-10-22T18:54:22.799Z,56.03
2022-10-22T18:56:50.376Z,55.22
2022-10-22T18:59:17.080Z,57.55
2022-10-22T19:01:44.158Z,56.03
2022-10-22T19:04:11.914Z,55.36
2022-10-22T19:06:40.680Z,55.99
2022-10-22T19:09:09.911Z,56.06
2022-10-22T19:11:37.119Z,57.27
2022-10-22T19:14:04.703Z,56.50
2022-10-22T19:16:31.482Z,56.29
2022-10-22T19:18:58.576Z,56.48
2022-10-22T19:21:25.471Z,56.16
2022-10-22T19:23:52.054Z,56.64
2022-10-22T19:26:19.263Z,56.51
2022-10-22T19:28:48.054Z,55.91
2022-10-22T19:31:14.697Z,55.90
2022-10-22T19:33:41.329Z,56.17
2022-10-22T19:36:09.123Z,55.97
2022-10-22T19:38:35.558Z,55.93
2022-10-22T19:41:02.646Z,56.36
2022-10-22T19:43:29.045Z,55.39
2022-10-22T19:45:55.819Z,56.22
2022-10-22T19:48:23.678Z,57.09
2022-10-22T19:50:50.656Z,57.36
2022-10-22T19:53:17.331Z,57.92
2022-10-22T19:55:44.139Z,57.88
2022-10-22T19:58:10.877Z,57.73
2022-10-22T20:00:37.603Z,56.34
2022-10-22T20:03:04.124Z,56.31
2022-10-22T20:05:30.651Z,56.09
2022-10-22T20:07:57.254Z,56.03
2022-10-22T20:10:23.756Z,55.84
2022-10-22T20:12:50.523Z,56.66
2022-10-22T20:15:16.955Z,56.66
2022-10-22T20:17:43.921Z,56.84
2022-10-22T20:20:10.411Z,58.20
2022-10-22T20:22:36.860Z,57.65
2022-10-22T20:25:03.181Z,56.54
2022-10-22T20:27:29.563Z,55.64
2022-10-22T20:29:57.540Z,55.42
2022-10-22T20:32:24.392Z,55.19
2022-10-22T20:34:51.097Z,54.95
2022-10-22T20:37:20.565Z,54.82
2022-10-22T20:39:47.425Z,55.00
2022-10-22T20:42:14.120Z,56.10
2022-10-22T20:44:40.587Z,56.32
2022-10-22T20:47:07.612Z,55.90
2022-10-22T20:49:34.274Z,55.25
2022-10-22T20:52:01.025Z,55.94
2022-10-22T20:54:28.713Z,56.10
2022-10-22T20:56:55.515Z,55.86
2022-10-22T20:59:22.400Z,55.54
2022-10-22T21:01:49.894Z,55.27
2022-10-22T21:04:16.364Z,55.46
2022-10-22T21:06:42.716Z,55.62
2022-10-22T21:09:10.609Z,54.68
2022-10-22T21:11:37.231Z,54.50
2022-10-22T21:14:03.625Z,55.53
2022-10-22T21:16:30.640Z,55.53
2022-10-22T21:18:57.248Z,55.52
2022-10-22T21:21:23.693Z,56.20
2022-10-22T21:23:50.306Z,55.90
2022-10-22T21:26:17.201Z,55.58
2022-10-22T21:28:43.648Z,54.78
2022-10-22T21:31:10.182Z,54.42
2022-10-22T21:33:36.630Z,54.60
2022-10-22T21:36:03.128Z,54.38
2022-10-22T21:38:29.763Z,54.36
2022-10-22T21:40:56.205Z,54.51
2022-10-22T21:43:22.587Z,54.97
2022-10-22T21:45:49.056Z,55.03
2022-10-22T21:48:15.402Z,54.91
2022-10-22T21:50:42.026Z,55.66
2022-10-22T21:53:08.616Z,56.32
2022-10-22T21:55:35.016Z,56.93
2022-10-22T21:58:01.387Z,56.10
2022-10-22T22:00:29.901Z,56.24
2022-10-22T22:02:56.547Z,55.43
2022-10-22T22:05:22.960Z,56.00
2022-10-22T22:07:49.709Z,55.65
2022-10-22T22:10:16.313Z,55.42
2022-10-22T22:12:43.300Z,55.13
2022-10-22T22:15:10.105Z,55.05
2022-10-22T22:17:36.855Z,54.82
2022-10-22T22:20:03.245Z,55.42
2022-10-22T22:22:29.898Z,55.08
2022-10-22T22:24:56.244Z,54.84
2022-10-22T22:27:23.623Z,54.91
2022-10-22T22:29:50.702Z,54.55
2022-10-22T22:32:17.189Z,55.16
2022-10-22T22:34:43.570Z,55.09
2022-10-22T22:37:11.121Z,55.27
2022-10-22T22:39:37.673Z,55.63
2022-10-22T22:42:04.048Z,55.08
2022-10-22T22:44:30.417Z,54.48
2022-10-22T22:46:56.870Z,54.56
2022-10-22T22:49:23.644Z,55.03
2022-10-22T22:51:50.179Z,55.75
2022-10-22T22:54:16.565Z,57.27
2022-10-22T22:56:42.923Z,56.16
2022-10-22T22:59:09.492Z,56.46
2022-10-22T23:01:36.359Z,56.67
2022-10-22T23:04:02.725Z,55.75
2022-10-22T23:06:29.396Z,56.02
2022-10-22T23:08:55.894Z,56.45
2022-10-22T23:11:22.299Z,57.37
2022-10-22T23:13:49.004Z,57.54
2022-10-22T23:16:15.533Z,56.77
2022-10-22T23:18:42.031Z,56.11
2022-10-22T23:21:08.466Z,55.26
2022-10-22T23:23:34.812Z,55.28
2022-10-22T23:26:01.338Z,55.20
2022-10-22T23:28:27.783Z,54.88
2022-10-22T23:30:54.161Z,54.97
2022-10-22T23:33:20.549Z,54.71
2022-10-22T23:35:47.322Z,54.51
2022-10-22T23:38:13.707Z,54.46
2022-10-22T23:40:40.074Z,54.72
2022-10-22T23:43:06.698Z,54.75
2022-10-22T23:45:33.283Z,54.42
2022-10-22T23:47:59.647Z,54.55
2022-10-22T23:50:26.060Z,54.54
2022-10-22T23:52:52.411Z,54.41
2022-10-22T23:55:18.832Z,54.68
2022-10-22T23:57:45.647Z,54.83
